createdAt,value
2018-07-27T00:01:20.082Z,56.59
2018-07-27T00:03:48.469Z,56.17
2018-07-27T00:06:16.896Z,56.38
2018-07-27T00:08:45.654Z,56.42
2018-07-27T00:11:14.733Z,56.43
2018-07-27T00:13:42.888Z,57.08
2018-07-27T00:16:11.789Z,57.36
2018-07-27T00:18:41.921Z,58.85
2018-07-27T00:21:10.798Z,59.04
2018-07-27T00:23:39.269Z,59.28
2018-07-27T00:26:07.704Z,59.65
2018-07-27T00:28:36.172Z,59.23
2018-07-27T00:31:04.285Z,59.66
2018-07-27T00:33:32.968Z,59.35
2018-07-27T00:36:01.633Z,59.72
2018-07-27T00:38:30.085Z,59.03
2018-07-27T00:40:58.634Z,59.17
2018-07-27T00:43:26.740Z,60.04
2018-07-27T00:45:54.854Z,60.22
2018-07-27T00:48:23.340Z,60.37
2018-07-27T00:50:51.637Z,61.10
2018-07-27T00:53:20.088Z,61.06
2018-07-27T00:55:48.521Z,61.97
2018-07-27T00:58:16.972Z,61.69
2018-07-27T01:00:45.912Z,61.32
2018-07-27T01:03:14.369Z,61.82
2018-07-27T01:05:42.614Z,62.11
2018-07-27T01:08:11.052Z,62.22
2018-07-27T01:10:39.334Z,61.80
2018-07-27T01:13:07.659Z,62.36
2018-07-27T01:15:35.762Z,62.04
2018-07-27T01:18:03.934Z,62.30
2018-07-27T01:20:32.349Z,62.32
2018-07-27T01:23:01.041Z,62.72
2018-07-27T01:25:29.828Z,63.06
2018-07-27T01:27:58.233Z,62.32
2018-07-27T01:30:26.809Z,62.62
2018-07-27T01:32:55.495Z,63.13
2018-07-27T01:35:23.912Z,62.58
2018-07-27T01:37:52.691Z,63.00
2018-07-27T01:40:21.308Z,62.51
2018-07-27T01:42:49.725Z,63.15
2018-07-27T01:45:18.196Z,62.81
2018-07-27T01:47:46.817Z,63.04
2018-07-27T01:50:15.257Z,63.24
2018-07-27T01:52:43.976Z,62.80
2018-07-27T01:55:12.709Z,63.62
2018-07-27T01:57:42.293Z,63.30
2018-07-27T02:00:11.102Z,63.42
2018-07-27T02:02:40.081Z,63.06
2018-07-27T02:05:08.784Z,63.47
2018-07-27T02:07:37.229Z,64.09
2018-07-27T02:10:05.404Z,63.31
2018-07-27T02:12:33.556Z,64.34
2018-07-27T02:15:01.999Z,64.19
2018-07-27T02:17:30.899Z,63.65
2018-07-27T02:19:59.330Z,63.57
2018-07-27T02:22:27.880Z,63.59
2018-07-27T02:24:56.352Z,64.39
2018-07-27T02:27:24.996Z,64.64
2018-07-27T02:29:53.400Z,64.71
2018-07-27T02:32:21.898Z,64.10
2018-07-27T02:34:50.823Z,64.99
2018-07-27T02:37:19.281Z,64.34
2018-07-27T02:39:48.128Z,63.95
2018-07-27T02:42:16.501Z,64.24
2018-07-27T02:44:45.271Z,64.23
2018-07-27T02:47:13.493Z,64.29
2018-07-27T02:49:42.329Z,64.92
2018-07-27T02:52:10.847Z,64.39
2018-07-27T02:54:39.420Z,64.98
2018-07-27T02:57:07.992Z,65.36
2018-07-27T02:59:36.469Z,65.08
2018-07-27T03:02:04.612Z,65.23
2018-07-27T03:04:32.913Z,65.71
2018-07-27T03:07:01.888Z,66.03
2018-07-27T03:09:30.357Z,66.37
2018-07-27T03:11:58.777Z,66.97
2018-07-27T03:14:27.477Z,66.24
2018-07-27T03:16:56.226Z,66.50
2018-07-27T03:19:24.782Z,66.80
2018-07-27T03:21:53.421Z,66.50
2018-07-27T03:24:21.806Z,66.82
2018-07-27T03:26:50.386Z,67.44
2018-07-27T03:29:18.852Z,67.32
2018-07-27T03:31:47.276Z,67.54
2018-07-27T03:34:15.773Z,67.61
2018-07-27T03:36:44.229Z,68.20
2018-07-27T03:39:12.621Z,68.37
2018-07-27T03:41:42.708Z,68.17
2018-07-27T03:44:11.177Z,67.90
2018-07-27T03:46:39.937Z,68.05
2018-07-27T03:49:08.413Z,67.62
2018-07-27T03:51:37.141Z,67.77
2018-07-27T03:54:05.837Z,68.50
2018-07-27T03:56:34.279Z,68.32
2018-07-27T03:59:12.300Z,67.77
2018-07-27T04:01:42.425Z,68.29
2018-07-27T04:04:10.725Z,68.13
2018-07-27T04:06:39.205Z,68.41
2018-07-27T04:09:08.559Z,68.69
2018-07-27T04:11:37.161Z,68.41
2018-07-27T04:14:05.674Z,69.47
2018-07-27T04:16:33.820Z,69.15
2018-07-27T04:19:02.727Z,69.92
2018-07-27T04:21:31.289Z,69.39
2018-07-27T04:24:00.071Z,69.96
2018-07-27T04:26:28.510Z,70.15
2018-07-27T04:28:57.285Z,70.05
2018-07-27T04:31:25.778Z,69.22
2018-07-27T04:33:54.696Z,68.30
2018-07-27T04:36:23.543Z,67.71
2018-07-27T04:38:52.017Z,67.69
2018-07-27T04:41:20.781Z,67.61
2018-07-27T04:43:49.219Z,67.25
2018-07-27T04:46:17.524Z,67.94
2018-07-27T04:48:45.977Z,68.09
2018-07-27T04:51:14.386Z,68.04
2018-07-27T04:53:43.166Z,67.77
2018-07-27T04:56:11.797Z,68.43
2018-07-27T04:58:40.368Z,68.20
2018-07-27T05:01:08.837Z,68.05
2018-07-27T05:03:36.968Z,68.33
2018-07-27T05:06:05.455Z,68.68
2018-07-27T05:08:38.404Z,68.17
2018-07-27T05:11:07.028Z,67.81
2018-07-27T05:13:35.163Z,68.43
2018-07-27T05:16:03.624Z,68.58
2018-07-27T05:18:32.092Z,68.10
2018-07-27T05:21:00.816Z,67.68
2018-07-27T05:23:29.309Z,67.63
2018-07-27T05:25:57.780Z,67.00
2018-07-27T05:28:26.189Z,66.07
2018-07-27T05:30:54.316Z,66.21
2018-07-27T05:33:22.820Z,65.76
2018-07-27T05:35:51.593Z,65.36
2018-07-27T05:38:19.995Z,65.71
2018-07-27T05:40:48.585Z,64.61
2018-07-27T05:43:17.505Z,64.42
2018-07-27T05:45:46.581Z,64.62
2018-07-27T05:48:15.065Z,63.87
2018-07-27T05:50:43.260Z,64.16
2018-07-27T05:53:11.728Z,64.05
2018-07-27T05:55:40.065Z,63.26
2018-07-27T05:58:08.424Z,63.87
2018-07-27T06:00:36.565Z,63.95
2018-07-27T06:03:05.220Z,62.86
2018-07-27T06:05:33.713Z,62.53
2018-07-27T06:08:01.941Z,61.86
2018-07-27T06:10:30.284Z,61.99
2018-07-27T06:12:58.717Z,62.53
2018-07-27T06:15:27.336Z,61.59
2018-07-27T06:17:55.529Z,60.91
2018-07-27T06:20:24.048Z,60.50
2018-07-27T06:22:52.569Z,60.01
2018-07-27T06:25:21.588Z,60.03
2018-07-27T06:27:50.269Z,58.99
2018-07-27T06:30:18.770Z,58.80
2018-07-27T06:32:47.630Z,59.51
2018-07-27T06:35:16.580Z,58.17
2018-07-27T06:37:44.992Z,57.76
2018-07-27T06:40:13.448Z,57.38
2018-07-27T06:42:42.509Z,57.40
2018-07-27T06:45:10.614Z,57.60
2018-07-27T06:47:39.489Z,56.76
2018-07-27T06:50:07.652Z,57.38
2018-07-27T06:52:36.522Z,56.22
2018-07-27T06:55:05.090Z,55.97
2018-07-27T06:57:33.616Z,55.85
2018-07-27T07:00:01.752Z,56.37
2018-07-27T07:02:30.446Z,54.76
2018-07-27T07:04:58.915Z,54.85
2018-07-27T07:07:27.892Z,54.27
2018-07-27T07:09:56.661Z,54.01
2018-07-27T07:12:24.797Z,53.69
2018-07-27T07:14:53.580Z,54.53
2018-07-27T07:17:22.042Z,53.71
2018-07-27T07:19:50.400Z,53.63
2018-07-27T07:22:18.857Z,53.71
2018-07-27T07:24:47.585Z,53.17
2018-07-27T07:27:15.697Z,52.36
2018-07-27T07:29:44.443Z,52.78
2018-07-27T07:32:12.781Z,52.73
2018-07-27T07:34:42.613Z,51.33
2018-07-27T07:37:11.572Z,52.01
2018-07-27T07:39:39.694Z,50.79
2018-07-27T07:42:08.619Z,50.36
2018-07-27T07:44:37.120Z,49.23
2018-07-27T07:47:05.261Z,48.23
2018-07-27T07:49:33.705Z,49.24
2018-07-27T07:52:02.381Z,48.44
2018-07-27T07:54:31.293Z,48.52
2018-07-27T07:56:59.934Z,47.16
2018-07-27T07:59:28.641Z,48.21
2018-07-27T08:01:57.361Z,47.50
2018-07-27T08:04:26.115Z,48.66
2018-07-27T08:06:55.005Z,47.76
2018-07-27T08:09:23.440Z,47.07
2018-07-27T08:11:51.841Z,45.98
2018-07-27T08:14:20.317Z,45.99
2018-07-27T08:16:48.916Z,46.12
2018-07-27T08:19:17.537Z,45.31
2018-07-27T08:21:46.325Z,45.10
2018-07-27T08:24:14.817Z,44.14
2018-07-27T08:26:47.533Z,42.37
2018-07-27T08:29:16.892Z,42.67
2018-07-27T08:31:46.011Z,41.92
2018-07-27T08:34:15.307Z,43.13
2018-07-27T08:36:43.797Z,43.31
2018-07-27T08:39:13.708Z,42.29
2018-07-27T08:41:43.525Z,42.25
2018-07-27T08:44:12.808Z,41.72
2018-07-27T08:46:41.305Z,41.63
2018-07-27T08:49:09.673Z,42.13
2018-07-27T08:51:38.073Z,41.89
2018-07-27T08:54:06.227Z,40.69
2018-07-27T08:56:34.993Z,41.76
2018-07-27T08:59:03.417Z,40.94
2018-07-27T09:01:31.776Z,39.80
2018-07-27T09:04:00.532Z,38.63
2018-07-27T09:06:28.796Z,38.12
2018-07-27T09:08:57.117Z,35.24
2018-07-27T09:11:25.575Z,36.58
2018-07-27T09:13:54.904Z,37.10
2018-07-27T09:16:23.861Z,35.58
2018-07-27T09:18:52.461Z,35.32
2018-07-27T09:21:20.953Z,35.32
2018-07-27T09:23:49.416Z,35.11
2018-07-27T09:26:18.030Z,34.69
2018-07-27T09:28:46.494Z,34.25
2018-07-27T09:31:15.168Z,33.02
2018-07-27T09:33:44.516Z,32.85
2018-07-27T09:36:13.041Z,33.38
2018-07-27T09:38:42.797Z,31.95
2018-07-27T09:41:11.507Z,33.98
2018-07-27T09:43:39.961Z,32.22
2018-07-27T09:46:09.129Z,30.92
2018-07-27T09:48:37.560Z,32.22
2018-07-27T09:51:06.023Z,32.27
2018-07-27T09:53:34.345Z,32.72
2018-07-27T09:56:03.292Z,32.47
2018-07-27T09:58:31.534Z,31.65
2018-07-27T10:01:05.824Z,28.11
2018-07-27T10:03:34.276Z,27.71
2018-07-27T10:06:02.977Z,28.12
2018-07-27T10:08:31.121Z,27.88
2018-07-27T10:10:59.498Z,27.62
2018-07-27T10:13:28.172Z,28.29
2018-07-27T10:15:56.631Z,26.73
2018-07-27T10:18:25.255Z,28.41
2018-07-27T10:20:53.929Z,28.75
2018-07-27T10:23:22.049Z,28.24
2018-07-27T10:25:50.176Z,27.87
2018-07-27T10:28:18.652Z,29.43
2018-07-27T10:30:47.124Z,29.28
2018-07-27T10:33:15.573Z,29.94
2018-07-27T10:35:44.309Z,28.60
2018-07-27T10:38:12.749Z,28.90
2018-07-27T10:40:41.218Z,28.46
2018-07-27T10:43:09.685Z,29.00
2018-07-27T10:45:37.996Z,28.75
2018-07-27T10:48:06.977Z,28.52
2018-07-27T10:50:35.430Z,28.55
2018-07-27T10:53:03.876Z,29.03
2018-07-27T10:55:32.586Z,27.48
2018-07-27T10:58:01.029Z,28.46
2018-07-27T11:00:29.461Z,28.71
2018-07-27T11:02:58.198Z,28.11
2018-07-27T11:05:26.843Z,29.52
2018-07-27T11:07:55.224Z,29.70
2018-07-27T11:10:23.810Z,28.15
2018-07-27T11:12:52.209Z,25.45
2018-07-27T11:15:20.670Z,26.07
2018-07-27T11:17:49.672Z,26.10
2018-07-27T11:20:18.579Z,27.01
2018-07-27T11:22:47.269Z,27.20
2018-07-27T11:25:15.643Z,26.15
2018-07-27T11:27:44.157Z,26.57
2018-07-27T11:30:12.642Z,26.95
2018-07-27T11:32:41.332Z,26.33
2018-07-27T11:35:09.441Z,26.46
2018-07-27T11:37:37.897Z,27.27
2018-07-27T11:40:06.670Z,26.30
2018-07-27T11:42:34.915Z,27.58
2018-07-27T11:45:03.776Z,25.92
2018-07-27T11:47:32.490Z,25.86
2018-07-27T11:50:00.945Z,25.83
2018-07-27T11:52:29.509Z,25.49
2018-07-27T11:54:58.345Z,25.46
2018-07-27T11:57:26.694Z,24.66
2018-07-27T11:59:55.149Z,25.66
2018-07-27T12:02:23.644Z,25.86
2018-07-27T12:04:52.384Z,25.59
2018-07-27T12:07:20.873Z,24.37
2018-07-27T12:09:49.600Z,25.68
2018-07-27T12:12:17.962Z,24.78
2018-07-27T12:14:46.833Z,25.46
2018-07-27T12:17:15.565Z,24.95
2018-07-27T12:19:44.009Z,25.67
2018-07-27T12:22:12.285Z,25.39
2018-07-27T12:24:40.733Z,25.28
2018-07-27T12:27:09.572Z,25.86
2018-07-27T12:29:38.497Z,25.69
2018-07-27T12:32:06.629Z,26.49
2018-07-27T12:34:34.745Z,26.06
2018-07-27T12:37:03.794Z,26.34
2018-07-27T12:39:32.745Z,26.50
2018-07-27T12:42:01.769Z,26.77
2018-07-27T12:44:30.686Z,27.89
2018-07-27T12:46:58.869Z,26.80
2018-07-27T12:49:27.038Z,26.53
2018-07-27T12:51:55.477Z,26.73
2018-07-27T12:54:23.948Z,26.60
2018-07-27T12:56:52.375Z,26.26
2018-07-27T12:59:20.513Z,26.00
2018-07-27T13:01:49.712Z,26.00
2018-07-27T13:04:17.841Z,24.68
2018-07-27T13:06:46.288Z,25.65
2018-07-27T13:09:14.402Z,26.35
2018-07-27T13:11:43.949Z,26.79
2018-07-27T13:14:12.667Z,26.25
2018-07-27T13:16:41.273Z,26.13
2018-07-27T13:19:12.125Z,27.07
2018-07-27T13:21:40.648Z,26.27
2018-07-27T13:24:08.938Z,25.48
2018-07-27T13:26:37.369Z,26.01
2018-07-27T13:29:06.023Z,26.53
2018-07-27T13:31:43.353Z,26.35
2018-07-27T13:35:03.590Z,24.95
2018-07-27T13:37:33.290Z,24.49
2018-07-27T13:40:03.473Z,25.43
2018-07-27T13:42:32.907Z,25.19
2018-07-27T13:45:01.019Z,24.89
2018-07-27T13:47:30.105Z,25.98
2018-07-27T13:49:58.968Z,25.92
2018-07-27T13:52:27.422Z,25.90
2018-07-27T13:54:55.775Z,25.57
2018-07-27T13:57:24.417Z,26.19
2018-07-27T13:59:53.056Z,26.98
2018-07-27T14:02:23.492Z,27.01
2018-07-27T14:04:53.649Z,24.40
2018-07-27T14:07:22.001Z,25.09
2018-07-27T14:09:50.700Z,25.60
2018-07-27T14:12:19.047Z,27.09
2018-07-27T14:14:47.648Z,26.76
2018-07-27T14:17:16.206Z,26.58
2018-07-27T14:19:44.949Z,27.81
2018-07-27T14:22:13.081Z,26.34
2018-07-27T14:24:41.229Z,26.25
2018-07-27T14:27:10.064Z,26.65
2018-07-27T14:29:38.881Z,27.26
2018-07-27T14:32:07.050Z,26.83
2018-07-27T14:34:35.176Z,27.75
2018-07-27T14:37:03.623Z,27.25
2018-07-27T14:39:32.522Z,26.70
2018-07-27T14:42:00.705Z,26.35
2018-07-27T14:44:29.187Z,26.60
2018-07-27T14:46:57.883Z,27.21
2018-07-27T14:49:26.460Z,27.20
2018-07-27T14:51:54.893Z,27.62
2018-07-27T14:54:23.375Z,28.76
2018-07-27T14:56:51.994Z,28.50
2018-07-27T14:59:20.469Z,27.85
2018-07-27T15:01:49.204Z,28.79
2018-07-27T15:04:17.321Z,27.52
2018-07-27T15:06:46.303Z,28.73
2018-07-27T15:09:15.392Z,28.38
2018-07-27T15:11:45.009Z,27.76
2018-07-27T15:14:13.404Z,28.82
2018-07-27T15:16:42.044Z,29.15
2018-07-27T15:19:10.204Z,29.45
2018-07-27T15:21:38.911Z,30.18
2018-07-27T15:24:07.072Z,29.46
2018-07-27T15:26:35.213Z,28.92
2018-07-27T15:29:04.064Z,28.89
2018-07-27T15:31:32.320Z,29.04
2018-07-27T15:34:00.458Z,29.40
2018-07-27T15:36:29.108Z,29.31
2018-07-27T15:38:58.056Z,29.41
2018-07-27T15:41:26.748Z,29.88
2018-07-27T15:43:55.332Z,29.55
2018-07-27T15:46:23.801Z,30.99
2018-07-27T15:48:52.229Z,30.11
2018-07-27T15:51:20.679Z,30.10
2018-07-27T15:53:49.309Z,30.91
2018-07-27T15:56:18.025Z,30.26
2018-07-27T15:58:46.548Z,30.59
2018-07-27T16:01:14.860Z,30.58
2018-07-27T16:03:44.151Z,31.30
2018-07-27T16:06:12.585Z,30.32
2018-07-27T16:08:41.027Z,30.95
2018-07-27T16:11:09.921Z,31.16
2018-07-27T16:13:38.772Z,30.58
2018-07-27T16:16:08.679Z,31.28
2018-07-27T16:18:36.841Z,31.37
2018-07-27T16:21:05.301Z,31.19
2018-07-27T16:23:33.765Z,30.72
2018-07-27T16:26:02.510Z,32.15
2018-07-27T16:28:30.874Z,30.99
2018-07-27T16:30:59.465Z,31.05
2018-07-27T16:33:28.121Z,30.96
2018-07-27T16:35:56.857Z,30.90
2018-07-27T16:38:25.358Z,30.82
2018-07-27T16:40:53.485Z,31.13
2018-07-27T16:43:21.847Z,32.05
2018-07-27T16:45:50.504Z,32.65
2018-07-27T16:48:18.826Z,32.95
2018-07-27T16:50:47.584Z,32.50
2018-07-27T16:53:15.928Z,31.97
2018-07-27T16:55:45.067Z,32.26
2018-07-27T16:58:13.498Z,32.42
2018-07-27T17:00:42.058Z,32.82
2018-07-27T17:03:10.665Z,33.18
2018-07-27T17:05:39.563Z,32.30
2018-07-27T17:08:08.405Z,32.90
2018-07-27T17:10:36.875Z,32.97
2018-07-27T17:13:05.106Z,33.01
2018-07-27T17:15:33.889Z,32.37
2018-07-27T17:18:02.631Z,32.69
2018-07-27T17:20:31.246Z,33.90
2018-07-27T17:22:59.735Z,33.18
2018-07-27T17:25:28.827Z,33.28
2018-07-27T17:27:57.157Z,33.08
2018-07-27T17:30:25.285Z,33.74
2018-07-27T17:32:53.756Z,33.32
2018-07-27T17:35:22.090Z,34.37
2018-07-27T17:37:50.573Z,33.19
2018-07-27T17:40:18.715Z,33.99
2018-07-27T17:42:47.708Z,33.88
2018-07-27T17:45:16.025Z,34.43
2018-07-27T17:47:44.372Z,33.79
2018-07-27T17:50:12.849Z,34.51
2018-07-27T17:52:41.264Z,34.00
2018-07-27T17:55:09.757Z,33.72
2018-07-27T17:57:38.544Z,33.46
2018-07-27T18:00:07.649Z,34.35
2018-07-27T18:02:36.476Z,34.52
2018-07-27T18:05:04.621Z,34.25
2018-07-27T18:07:33.444Z,34.30
2018-07-27T18:10:01.685Z,33.86
2018-07-27T18:12:30.368Z,34.47
2018-07-27T18:14:59.119Z,33.31
2018-07-27T18:17:27.383Z,34.99
2018-07-27T18:19:55.489Z,34.67
2018-07-27T18:22:24.188Z,34.05
2018-07-27T18:24:52.330Z,34.44
2018-07-27T18:27:20.820Z,34.92
2018-07-27T18:29:49.554Z,35.02
2018-07-27T18:32:18.053Z,35.59
2018-07-27T18:34:46.460Z,35.23
2018-07-27T18:37:14.601Z,34.92
2018-07-27T18:39:42.780Z,36.07
2018-07-27T18:42:11.392Z,35.66
2018-07-27T18:44:39.747Z,36.04
2018-07-27T18:47:08.541Z,35.36
2018-07-27T18:49:36.652Z,36.21
2018-07-27T18:52:05.018Z,35.72
2018-07-27T18:54:33.149Z,35.57
2018-07-27T18:57:01.558Z,35.86
2018-07-27T18:59:30.213Z,35.48
2018-07-27T19:01:58.373Z,36.35
2018-07-27T19:04:27.036Z,35.89
2018-07-27T19:06:56.212Z,36.14
2018-07-27T19:09:24.829Z,36.20
2018-07-27T19:11:53.216Z,37.11
2018-07-27T19:14:21.668Z,37.38
2018-07-27T19:16:50.093Z,37.53
2018-07-27T19:19:18.551Z,37.83
2018-07-27T19:21:46.998Z,37.69
2018-07-27T19:24:15.269Z,38.11
2018-07-27T19:26:44.796Z,37.17
2018-07-27T19:29:13.326Z,37.42
2018-07-27T19:31:41.778Z,38.30
2018-07-27T19:34:10.200Z,37.97
2018-07-27T19:36:38.701Z,38.70
2018-07-27T19:39:09.116Z,38.04
2018-07-27T19:41:37.777Z,39.37
2018-07-27T19:44:06.258Z,39.37
2018-07-27T19:46:34.589Z,40.05
2018-07-27T19:49:03.299Z,41.09
2018-07-27T19:51:33.508Z,41.22
2018-07-27T19:54:01.845Z,42.58
2018-07-27T19:56:30.709Z,42.79
2018-07-27T19:58:59.097Z,42.95
2018-07-27T20:01:27.636Z,42.63
2018-07-27T20:03:56.072Z,43.32
2018-07-27T20:06:24.749Z,43.71
2018-07-27T20:08:53.232Z,44.02
2018-07-27T20:11:21.904Z,43.61
2018-07-27T20:13:50.344Z,43.76
2018-07-27T20:16:18.827Z,43.87
2018-07-27T20:18:47.500Z,44.03
2018-07-27T20:21:16.160Z,44.90
2018-07-27T20:23:45.448Z,44.40
2018-07-27T20:26:14.002Z,44.58
2018-07-27T20:28:42.824Z,44.90
2018-07-27T20:31:11.573Z,45.95
2018-07-27T20:33:39.705Z,45.28
2018-07-27T20:36:08.158Z,46.10
2018-07-27T20:38:36.404Z,46.07
2018-07-27T20:41:04.732Z,46.15
2018-07-27T20:43:33.027Z,46.59
2018-07-27T20:46:01.823Z,46.38
2018-07-27T20:48:30.826Z,46.88
2018-07-27T20:50:59.790Z,47.26
2018-07-27T20:53:28.433Z,47.05
2018-07-27T20:55:57.293Z,46.56
2018-07-27T20:58:25.449Z,46.68
2018-07-27T21:00:54.212Z,47.61
2018-07-27T21:03:22.961Z,47.28
2018-07-27T21:05:51.712Z,48.21
2018-07-27T21:08:20.217Z,47.64
2018-07-27T21:10:48.832Z,47.68
2018-07-27T21:13:17.536Z,47.72
2018-07-27T21:15:45.926Z,48.51
2018-07-27T21:18:14.409Z,48.73
2018-07-27T21:20:42.756Z,49.08
2018-07-27T21:23:11.222Z,49.00
2018-07-27T21:25:39.794Z,49.05
2018-07-27T21:28:07.933Z,49.41
2018-07-27T21:30:36.577Z,49.39
2018-07-27T21:33:05.026Z,49.48
2018-07-27T21:35:33.140Z,49.54
2018-07-27T21:38:01.801Z,49.09
2018-07-27T21:40:29.909Z,49.86
2018-07-27T21:42:58.376Z,50.10
2018-07-27T21:45:26.668Z,50.10
2018-07-27T21:47:55.453Z,49.39
2018-07-27T21:50:23.914Z,50.40
2018-07-27T21:52:52.391Z,49.64
2018-07-27T21:55:20.533Z,49.97
2018-07-27T21:57:49.138Z,49.56
2018-07-27T22:00:17.681Z,49.76
2018-07-27T22:02:45.888Z,50.23
2018-07-27T22:05:14.805Z,49.99
2018-07-27T22:07:43.252Z,50.26
2018-07-27T22:10:11.569Z,50.27
2018-07-27T22:12:40.015Z,50.41
2018-07-27T22:15:14.714Z,51.16
2018-07-27T22:17:42.841Z,51.10
2018-07-27T22:20:11.288Z,50.55
2018-07-27T22:22:39.596Z,51.22
2018-07-27T22:25:07.705Z,51.82
2018-07-27T22:27:36.177Z,51.17
2018-07-27T22:30:06.652Z,51.38
2018-07-27T22:32:35.338Z,52.22
2018-07-27T22:35:03.581Z,51.34
2018-07-27T22:37:32.293Z,51.58
2018-07-27T22:40:00.853Z,52.24
2018-07-27T22:42:29.332Z,52.30
2018-07-27T22:44:57.727Z,51.55
2018-07-27T22:47:26.421Z,51.76
2018-07-27T22:49:54.666Z,52.32
2018-07-27T22:52:23.132Z,51.76
2018-07-27T22:54:52.097Z,51.94
2018-07-27T22:57:20.241Z,52.25
2018-07-27T22:59:48.974Z,52.29
2018-07-27T23:02:17.429Z,52.71
2018-07-27T23:04:46.161Z,52.79
2018-07-27T23:07:14.612Z,52.36
2018-07-27T23:09:42.989Z,53.42
2018-07-27T23:12:11.948Z,53.44
2018-07-27T23:14:40.267Z,52.89
2018-07-27T23:17:09.004Z,53.50
2018-07-27T23:19:37.132Z,52.87
2018-07-27T23:22:05.276Z,53.77
2018-07-27T23:24:34.024Z,53.18
2018-07-27T23:27:02.377Z,53.96
2018-07-27T23:29:30.766Z,54.34
2018-07-27T23:31:59.108Z,53.80
2018-07-27T23:34:27.794Z,54.35
2018-07-27T23:36:56.514Z,54.08
2018-07-27T23:39:25.074Z,54.37
2018-07-27T23:41:53.516Z,54.45
2018-07-27T23:44:22.148Z,53.89
2018-07-27T23:46:50.597Z,54.32
2018-07-27T23:49:19.416Z,55.53
2018-07-27T23:51:48.149Z,54.55
2018-07-27T23:54:16.299Z,56.14
2018-07-27T23:56:45.552Z,55.29
2018-07-27T23:59:14.341Z,55.29
